Time;durP1;ratioP1;P1;durP2;ratioP2;P2;SDS_P1;SDS_P2;PMS_P1;PMS_P2;Temp;Humidity;BMP_temperature;BMP_pressure;BME280_temperature;BME280_humidity;BME280_pressure;Samples;Min_cycle;Max_cycle;Signal;HPM_P1;HPM_P2
2021/11/27 00:01:06;;;;;;;0.10;0.10;;;2.80;99.90;;;;;;5000378;28;20045;-84
2021/11/27 00:03:33;;;;;;;0.10;0.10;;;3.30;99.90;;;;;;5032097;28;20132;-85
2021/11/27 00:06:00;;;;;;;0.20;0.20;;;2.80;99.90;;;;;;5032264;28;20132;-85
2021/11/27 00:08:27;;;;;;;0.10;0.10;;;2.70;99.90;;;;;;4999583;28;20053;-84
2021/11/27 00:10:57;;;;;;;0.30;0.30;;;3.30;99.90;;;;;;5032168;28;20057;-84
2021/11/27 00:13:24;;;;;;;0.20;0.20;;;3.10;99.90;;;;;;5016161;28;20487;-84
2021/11/27 00:15:52;;;;;;;0.17;0.17;;;2.70;99.90;;;;;;5015603;28;20128;-84
2021/11/27 00:18:21;;;;;;;0.10;0.10;;;2.70;99.90;;;;;;5048447;28;20128;-84
2021/11/27 00:21:20;;;;;;;0.20;0.20;;;2.60;99.90;;;;;;5048135;28;20049;-83
2021/11/27 00:23:49;;;;;;;0.10;0.10;;;2.70;99.90;;;;;;5029525;28;20093;-84
2021/11/27 00:26:17;;;;;;;0.55;0.43;;;3.40;99.90;;;;;;5032303;28;20042;-84
2021/11/27 00:28:46;;;;;;;0.20;0.20;;;2.60;99.90;;;;;;5047687;28;20645;-83
2021/11/27 00:31:16;;;;;;;0.20;0.20;;;3.40;99.90;;;;;;5031894;28;20038;-85
2021/11/27 00:33:43;;;;;;;0.20;0.20;;;2.60;99.90;;;;;;5047598;28;20049;-84
2021/11/27 00:36:12;;;;;;;0.20;0.20;;;3.60;99.90;;;;;;5015736;28;20046;-83
2021/11/27 00:38:39;;;;;;;0.20;0.20;;;2.60;99.90;;;;;;5015360;28;20489;-84
2021/11/27 00:41:05;;;;;;;0.10;0.10;;;2.70;99.90;;;;;;5031779;28;20121;-83
2021/11/27 00:43:32;;;;;;;0.20;0.20;;;2.60;99.90;;;;;;5047859;28;20040;-84
2021/11/27 00:45:59;;;;;;;0.20;0.20;;;2.70;99.90;;;;;;5030398;28;20626;-84
2021/11/27 00:48:26;;;;;;;0.20;0.20;;;2.70;99.90;;;;;;5031484;28;20045;-83
2021/11/27 00:50:56;;;;;;;0.10;0.10;;;2.70;99.90;;;;;;5015382;28;20438;-83
2021/11/27 00:53:24;;;;;;;0.20;0.20;;;3.60;99.90;;;;;;5047567;28;20042;-84
2021/11/27 00:55:51;;;;;;;0.20;0.20;;;3.30;99.90;;;;;;4999671;28;20091;-83
2021/11/27 00:58:18;;;;;;;0.10;0.10;;;2.70;99.90;;;;;;4998983;28;20554;-84
2021/11/27 01:00:55;;;;;;;0.10;0.10;;;2.70;99.90;;;;;;5047146;28;20135;-84
2021/11/27 01:03:26;;;;;;;0.10;0.10;;;2.70;99.90;;;;;;5047734;28;20046;-84
2021/11/27 01:05:54;;;;;;;0.20;0.20;;;2.80;99.90;;;;;;5047395;28;20046;-83
2021/11/27 01:08:20;;;;;;;0.10;0.10;;;3.60;99.90;;;;;;5014624;28;20521;-85
2021/11/27 01:10:58;;;;;;;0.10;0.10;;;3.00;99.90;;;;;;5015023;28;20046;-84
2021/11/27 01:13:25;;;;;;;0.20;0.20;;;3.10;99.90;;;;;;5047909;28;20045;-84
2021/11/27 01:15:52;;;;;;;0.20;0.20;;;3.30;99.90;;;;;;5047182;28;20402;-84
2021/11/27 01:18:19;;;;;;;0.10;0.10;;;3.30;99.90;;;;;;5015177;28;20049;-83
2021/11/27 01:20:56;;;;;;;0.17;0.17;;;3.00;99.90;;;;;;5030941;28;20797;-84
2021/11/27 01:23:24;;;;;;;0.10;0.10;;;2.90;99.90;;;;;;5047608;28;20084;-83
2021/11/27 01:25:51;;;;;;;0.20;0.20;;;3.20;99.90;;;;;;4998563;28;20041;-83
2021/11/27 01:28:19;;;;;;;0.10;0.10;;;2.90;99.90;;;;;;5030917;28;20049;-82
2021/11/27 01:30:50;;;;;;;0.13;0.13;;;2.90;99.90;;;;;;5014784;28;20046;-83
2021/11/27 01:33:18;;;;;;;0.20;0.20;;;3.00;99.90;;;;;;5047361;28;20124;-82
2021/11/27 01:35:45;;;;;;;0.10;0.10;;;3.00;99.90;;;;;;5030970;28;20048;-84
2021/11/27 01:38:11;;;;;;;0.10;0.10;;;3.00;99.90;;;;;;4998937;28;20042;-84
2021/11/27 01:40:39;;;;;;;0.17;0.17;;;3.20;99.90;;;;;;5030372;28;20065;-83
2021/11/27 01:43:06;;;;;;;0.20;0.20;;;3.30;99.90;;;;;;5014578;28;20383;-83
2021/11/27 01:45:33;;;;;;;0.20;0.20;;;3.00;99.90;;;;;;5030806;28;20415;-83
2021/11/27 01:48:04;;;;;;;0.20;0.20;;;3.00;99.90;;;;;;5030281;28;20042;-84
2021/11/27 01:50:35;;;;;;;0.20;0.20;;;3.00;99.90;;;;;;5047221;28;20041;-84
2021/11/27 01:53:03;;;;;;;0.20;0.20;;;3.10;99.90;;;;;;5046822;28;20038;-83
2021/11/27 01:55:30;;;;;;;0.20;0.20;;;3.00;99.90;;;;;;5046913;28;20037;-84
2021/11/27 01:57:57;;;;;;;0.20;0.20;;;3.10;99.90;;;;;;5029969;28;20041;-83
2021/11/27 02:00:27;;;;;;;0.10;0.10;;;3.60;99.90;;;;;;5030820;28;20038;-84
2021/11/27 02:02:55;;;;;;;0.10;0.10;;;3.10;99.90;;;;;;5046451;28;20554;-83
2021/11/27 02:05:22;;;;;;;0.20;0.20;;;3.20;99.90;;;;;;5047162;28;20033;-83
2021/11/27 02:07:50;;;;;;;0.10;0.10;;;3.90;99.90;;;;;;4999737;28;20073;-83
2021/11/27 02:10:17;;;;;;;0.13;0.13;;;3.30;99.90;;;;;;5018157;28;20109;-84
2021/11/27 02:12:45;;;;;;;0.10;0.10;;;3.10;99.90;;;;;;5033391;28;20538;-83
2021/11/27 02:15:13;;;;;;;0.10;0.10;;;3.40;99.90;;;;;;5017962;28;20045;-83
2021/11/27 02:17:40;;;;;;;0.10;0.10;;;3.10;99.90;;;;;;5050250;28;20073;-83
2021/11/27 02:20:08;;;;;;;0.20;0.20;;;3.20;99.90;;;;;;5017263;28;20057;-82
2021/11/27 02:22:36;;;;;;;0.10;0.10;;;3.20;99.90;;;;;;5017141;28;20049;-83
2021/11/27 02:25:09;;;;;;;0.17;0.17;;;3.40;99.90;;;;;;5032962;28;20080;-84
2021/11/27 02:27:36;;;;;;;0.10;0.10;;;3.20;99.90;;;;;;5033235;28;20100;-84
2021/11/27 02:30:05;;;;;;;0.20;0.20;;;4.00;99.90;;;;;;5016953;28;20130;-84
2021/11/27 02:32:32;;;;;;;0.20;0.20;;;3.20;99.90;;;;;;5017496;28;20052;-84
2021/11/27 02:34:59;;;;;;;0.17;0.17;;;4.10;99.90;;;;;;5033480;28;20745;-84
2021/11/27 02:37:26;;;;;;;0.10;0.10;;;3.20;99.90;;;;;;5033859;28;20041;-82
2021/11/27 02:39:52;;;;;;;0.20;0.20;;;3.20;99.90;;;;;;5001656;28;20042;-83
2021/11/27 02:42:20;;;;;;;0.20;0.20;;;3.90;99.90;;;;;;5017783;28;20041;-84
2021/11/27 02:44:47;;;;;;;0.20;0.20;;;3.30;99.90;;;;;;5033107;28;20045;-84
2021/11/27 02:47:14;;;;;;;0.10;0.10;;;3.40;99.90;;;;;;5033395;28;20049;-83
2021/11/27 02:49:40;;;;;;;0.10;0.10;;;3.80;99.90;;;;;;5033759;28;20041;-84
2021/11/27 02:52:07;;;;;;;0.20;0.20;;;3.30;99.90;;;;;;5017103;28;20414;-83
2021/11/27 02:54:34;;;;;;;0.20;0.20;;;3.70;99.90;;;;;;5033397;28;20107;-83
2021/11/27 02:57:01;;;;;;;0.20;0.20;;;3.30;99.90;;;;;;5016784;28;20125;-83
2021/11/27 02:59:28;;;;;;;0.20;0.20;;;3.40;99.90;;;;;;5017327;28;20037;-83
2021/11/27 03:01:58;;;;;;;0.10;0.10;;;3.30;99.90;;;;;;5000970;28;20033;-83
2021/11/27 03:04:27;;;;;;;0.20;0.20;;;3.50;99.90;;;;;;5033099;28;20045;-83
2021/11/27 03:06:55;;;;;;;0.10;0.10;;;3.30;99.90;;;;;;5032805;28;20041;-84
2021/11/27 03:09:22;;;;;;;0.20;0.20;;;3.40;99.90;;;;;;5047460;28;20519;-84
2021/11/27 03:11:52;;;;;;;0.10;0.10;;;3.30;99.90;;;;;;5033403;28;20050;-84
2021/11/27 03:14:21;;;;;;;0.10;0.10;;;3.30;99.90;;;;;;5049972;28;20084;-83
2021/11/27 03:16:49;;;;;;;0.10;0.10;;;3.30;99.90;;;;;;5049190;28;20038;-83
2021/11/27 03:19:17;;;;;;;0.10;0.10;;;3.40;99.90;;;;;;5034111;28;20406;-84
2021/11/27 03:21:44;;;;;;;0.10;0.10;;;3.40;99.90;;;;;;5033240;28;20498;-83
2021/11/27 03:24:11;;;;;;;0.10;0.10;;;3.40;99.90;;;;;;5016851;28;20045;-83
2021/11/27 03:26:39;;;;;;;0.10;0.10;;;3.60;99.90;;;;;;5001280;28;20049;-83
2021/11/27 03:29:06;;;;;;;0.10;0.10;;;3.40;99.90;;;;;;5033616;28;20046;-82
2021/11/27 03:31:33;;;;;;;0.10;0.10;;;3.40;99.90;;;;;;5033236;28;20137;-84
2021/11/27 03:34:00;;;;;;;0.10;0.10;;;3.40;99.90;;;;;;5017171;28;20073;-83
2021/11/27 03:36:27;;;;;;;0.10;0.10;;;3.90;99.90;;;;;;5033517;28;20129;-83
2021/11/27 03:38:53;;;;;;;0.20;0.20;;;3.50;99.90;;;;;;5049331;28;20087;-83
2021/11/27 03:41:20;;;;;;;0.17;0.17;;;3.40;99.90;;;;;;5000588;28;20046;-83
2021/11/27 03:43:47;;;;;;;0.10;0.10;;;3.80;99.90;;;;;;5000555;28;20048;-83
2021/11/27 03:46:15;;;;;;;0.20;0.20;;;3.40;99.90;;;;;;5032447;28;20562;-83
2021/11/27 03:48:43;;;;;;;0.10;0.10;;;3.50;99.90;;;;;;5033611;28;20104;-83
2021/11/27 03:51:15;;;;;;;0.10;0.10;;;3.40;99.90;;;;;;5033434;28;20042;-83
2021/11/27 03:53:44;;;;;;;0.10;0.10;;;3.40;99.90;;;;;;5049934;28;20041;-83
2021/11/27 03:56:14;;;;;;;0.10;0.10;;;3.90;99.90;;;;;;5016890;28;20049;-83
2021/11/27 03:58:41;;;;;;;0.10;0.10;;;3.40;99.90;;;;;;5049182;28;20633;-83
2021/11/27 04:01:12;;;;;;;0.10;0.10;;;3.60;99.90;;;;;;5048654;28;20026;-84
2021/11/27 04:03:41;;;;;;;0.10;0.10;;;3.60;99.90;;;;;;5048787;28;20396;-84
2021/11/27 04:06:08;;;;;;;0.10;0.10;;;3.40;99.90;;;;;;5048369;28;20037;-84
2021/11/27 04:08:35;;;;;;;0.13;0.13;;;3.50;99.90;;;;;;5016650;28;20048;-84
2021/11/27 04:11:03;;;;;;;0.20;0.20;;;3.40;99.90;;;;;;5050246;28;20061;-83
2021/11/27 04:13:29;;;;;;;0.10;0.10;;;3.40;99.90;;;;;;5049701;28;20041;-84
2021/11/27 04:15:56;;;;;;;0.10;0.10;;;3.40;99.90;;;;;;5050975;28;20514;-82
2021/11/27 04:18:23;;;;;;;0.10;0.10;;;3.80;99.90;;;;;;5053903;28;20451;-84
2021/11/27 04:20:51;;;;;;;0.20;0.20;;;3.40;99.90;;;;;;5031697;28;20034;-83
2021/11/27 04:23:19;;;;;;;0.20;0.20;;;3.50;99.90;;;;;;5031966;28;20049;-83
2021/11/27 04:25:46;;;;;;;0.20;0.20;;;3.40;99.90;;;;;;5032164;28;20038;-83
2021/11/27 04:28:13;;;;;;;0.10;0.10;;;3.60;99.90;;;;;;5015251;28;20041;-82
2021/11/27 04:30:41;;;;;;;0.10;0.10;;;3.90;99.90;;;;;;5015721;28;20045;-83
2021/11/27 04:33:08;;;;;;;0.10;0.10;;;3.40;99.90;;;;;;5031291;28;20525;-83
2021/11/27 04:35:36;;;;;;;0.15;0.15;;;3.40;99.90;;;;;;5015429;28;20041;-83
2021/11/27 04:38:03;;;;;;;0.10;0.10;;;3.40;99.90;;;;;;5015093;28;20045;-83
2021/11/27 04:40:31;;;;;;;0.10;0.10;;;3.50;99.90;;;;;;5031488;28;20034;-83
2021/11/27 04:43:00;;;;;;;0.10;0.10;;;3.40;99.90;;;;;;5015701;28;20096;-83
2021/11/27 04:45:29;;;;;;;0.20;0.20;;;3.40;99.90;;;;;;5031890;28;20053;-83
2021/11/27 04:47:55;;;;;;;0.10;0.10;;;3.40;99.90;;;;;;5031788;28;20038;-83
2021/11/27 04:50:22;;;;;;;0.17;0.17;;;3.40;99.90;;;;;;5031671;28;20100;-84
2021/11/27 04:52:49;;;;;;;0.13;0.13;;;3.40;99.90;;;;;;5015591;28;20522;-83
2021/11/27 04:55:17;;;;;;;0.10;0.10;;;3.40;99.90;;;;;;5031455;28;20088;-84
2021/11/27 04:57:45;;;;;;;0.20;0.20;;;3.40;99.90;;;;;;5015294;28;20038;-83
2021/11/27 05:00:35;;;;;;;0.10;0.10;;;3.60;99.90;;;;;;5047350;28;20041;-84
2021/11/27 05:03:02;;;;;;;0.20;0.20;;;3.50;99.90;;;;;;5047638;28;20030;-84
2021/11/27 05:05:29;;;;;;;0.10;0.10;;;3.40;99.90;;;;;;5031491;28;20518;-84
2021/11/27 05:07:56;;;;;;;0.10;0.10;;;3.40;99.90;;;;;;5031648;28;20046;-83
2021/11/27 05:10:23;;;;;;;0.10;0.10;;;3.40;99.90;;;;;;5034551;28;20517;-85
2021/11/27 05:12:50;;;;;;;0.10;0.10;;;4.20;99.90;;;;;;5011675;28;20050;-84
2021/11/27 05:15:17;;;;;;;0.10;0.10;;;3.40;99.90;;;;;;5027143;28;20039;-83
2021/11/27 05:17:44;;;;;;;0.10;0.10;;;4.10;99.90;;;;;;5011441;28;20070;-83
2021/11/27 05:20:11;;;;;;;0.10;0.10;;;3.70;99.90;;;;;;5011300;28;20081;-83
2021/11/27 05:22:38;;;;;;;0.10;0.10;;;3.40;99.90;;;;;;5011073;28;20452;-84
2021/11/27 05:25:07;;;;;;;0.10;0.10;;;3.40;99.90;;;;;;5027132;28;20038;-82
2021/11/27 05:27:36;;;;;;;0.10;0.10;;;3.40;99.90;;;;;;5027075;28;20129;-83
2021/11/27 05:30:05;;;;;;;0.10;0.10;;;3.40;99.90;;;;;;5027020;28;20046;-83
2021/11/27 05:35:02;;;;;;;0.20;0.20;;;3.40;99.90;;;;;;5011752;28;20047;-83
2021/11/27 05:37:29;;;;;;;0.15;0.15;;;3.40;99.90;;;;;;5011445;28;20117;-83
2021/11/27 05:39:56;;;;;;;0.20;0.20;;;3.70;99.90;;;;;;5011540;28;20034;-83
2021/11/27 05:42:23;;;;;;;0.20;0.20;;;3.70;99.90;;;;;;5011208;28;20045;-83
2021/11/27 05:44:52;;;;;;;0.15;0.15;;;3.80;99.90;;;;;;5012008;28;20108;-83
2021/11/27 05:47:20;;;;;;;0.20;0.20;;;3.40;99.90;;;;;;5028057;28;20108;-83
2021/11/27 05:49:46;;;;;;;0.10;0.10;;;3.30;99.90;;;;;;5011069;28;20124;-84
2021/11/27 05:52:13;;;;;;;0.10;0.10;;;3.40;99.90;;;;;;5010647;28;20093;-83
2021/11/27 05:54:40;;;;;;;0.10;0.10;;;3.40;99.90;;;;;;5010189;28;20411;-84
2021/11/27 05:57:07;;;;;;;0.20;0.20;;;3.70;99.90;;;;;;5010199;28;20049;-84
2021/11/27 05:59:34;;;;;;;0.10;0.10;;;3.40;99.90;;;;;;5010392;28;20046;-84
2021/11/27 06:02:01;;;;;;;0.20;0.20;;;3.40;99.90;;;;;;5026705;28;20041;-84
2021/11/27 06:04:27;;;;;;;0.20;0.20;;;3.40;99.90;;;;;;5026763;28;20129;-83
2021/11/27 06:06:54;;;;;;;0.10;0.10;;;3.40;99.90;;;;;;5010685;28;20070;-82
2021/11/27 06:09:21;;;;;;;0.10;0.10;;;3.40;99.90;;;;;;5010472;28;20062;-83
2021/11/27 06:11:48;;;;;;;0.13;0.13;;;3.40;99.90;;;;;;5011111;28;20114;-83
2021/11/27 06:14:15;;;;;;;0.10;0.10;;;3.40;99.90;;;;;;5026190;28;20045;-83
2021/11/27 06:16:42;;;;;;;0.20;0.20;;;3.40;99.90;;;;;;5027897;28;20038;-84
2021/11/27 06:19:08;;;;;;;0.20;0.20;;;3.50;99.90;;;;;;5011530;28;20038;-83
2021/11/27 06:21:37;;;;;;;0.20;0.20;;;3.40;99.90;;;;;;5027792;28;20557;-84
2021/11/27 06:24:04;;;;;;;0.10;0.10;;;3.40;99.90;;;;;;5011787;28;20042;-84
2021/11/27 06:26:30;;;;;;;0.10;0.10;;;3.50;99.90;;;;;;5011439;28;20129;-82
2021/11/27 06:28:57;;;;;;;0.10;0.10;;;3.40;99.90;;;;;;5010333;28;20073;-83
2021/11/27 06:31:24;;;;;;;0.10;0.10;;;4.50;99.90;;;;;;5010260;28;20078;-83
2021/11/27 06:33:50;;;;;;;0.10;0.10;;;3.40;99.90;;;;;;5010538;28;20049;-84
2021/11/27 06:36:17;;;;;;;0.10;0.10;;;3.50;99.90;;;;;;5010097;28;20035;-82
2021/11/27 06:38:44;;;;;;;0.10;0.10;;;3.50;99.90;;;;;;5010704;28;20121;-83
2021/11/27 06:41:11;;;;;;;0.13;0.13;;;3.40;99.90;;;;;;5010423;28;20038;-83
2021/11/27 06:43:38;;;;;;;0.10;0.10;;;3.70;99.90;;;;;;5012346;28;20181;-84
2021/11/27 06:46:04;;;;;;;0.10;0.10;;;3.40;99.90;;;;;;5014192;28;20050;-83
2021/11/27 06:48:31;;;;;;;0.20;0.20;;;3.80;99.90;;;;;;5014368;28;20133;-83
2021/11/27 06:50:58;;;;;;;0.10;0.10;;;3.50;99.90;;;;;;5031060;28;20138;-83
2021/11/27 06:53:25;;;;;;;0.10;0.10;;;3.90;99.90;;;;;;5014288;28;20521;-83
2021/11/27 06:55:52;;;;;;;0.20;0.20;;;4.40;99.90;;;;;;5014407;28;20066;-83
2021/11/27 06:58:19;;;;;;;0.20;0.20;;;3.50;99.90;;;;;;5030187;28;20052;-84
2021/11/27 07:00:45;;;;;;;0.10;0.10;;;3.80;99.90;;;;;;5013785;28;20473;-84
2021/11/27 07:03:12;;;;;;;0.10;0.10;;;4.30;99.90;;;;;;5013689;28;20051;-83
2021/11/27 07:05:39;;;;;;;0.10;0.10;;;3.40;99.90;;;;;;5029688;28;20042;-83
2021/11/27 07:08:07;;;;;;;0.10;0.10;;;3.40;99.90;;;;;;5013752;28;20146;-83
2021/11/27 07:10:35;;;;;;;0.10;0.10;;;3.40;99.90;;;;;;5012912;28;20058;-83
2021/11/27 07:13:02;;;;;;;0.10;0.10;;;3.90;99.90;;;;;;5013497;28;20049;-82
2021/11/27 07:15:29;;;;;;;0.10;0.10;;;3.40;99.90;;;;;;5027375;28;20088;-84
2021/11/27 07:17:56;;;;;;;0.10;0.10;;;3.40;99.90;;;;;;5017872;28;20038;-83
2021/11/27 07:20:23;;;;;;;0.10;0.10;;;3.40;99.90;;;;;;5033060;28;20045;-83
2021/11/27 07:22:49;;;;;;;0.10;0.10;;;3.40;99.90;;;;;;5049823;28;20041;-83
2021/11/27 07:25:16;;;;;;;0.20;0.20;;;4.00;99.90;;;;;;5048676;28;20042;-84
2021/11/27 07:27:43;;;;;;;0.10;0.10;;;3.40;99.90;;;;;;5033085;28;20042;-84
2021/11/27 07:30:10;;;;;;;0.10;0.10;;;3.40;99.90;;;;;;5032548;28;20042;-83
2021/11/27 07:32:37;;;;;;;0.10;0.10;;;3.50;99.90;;;;;;5032463;28;20046;-84
2021/11/27 07:35:04;;;;;;;0.10;0.10;;;3.50;99.90;;;;;;5016454;28;20053;-85
2021/11/27 07:37:31;;;;;;;0.10;0.10;;;3.50;99.90;;;;;;5032389;28;20046;-83
2021/11/27 07:39:58;;;;;;;0.20;0.20;;;3.50;99.90;;;;;;5016546;28;20052;-85
2021/11/27 07:42:24;;;;;;;0.10;0.10;;;3.80;99.90;;;;;;5048430;28;20383;-83
2021/11/27 07:44:51;;;;;;;0.10;0.10;;;3.60;99.90;;;;;;5016355;28;20050;-85
2021/11/27 07:47:18;;;;;;;0.10;0.10;;;3.60;99.90;;;;;;5015976;28;20038;-83
2021/11/27 07:49:44;;;;;;;0.10;0.10;;;3.60;99.90;;;;;;5017185;28;20085;-83
2021/11/27 07:52:11;;;;;;;0.20;0.20;;;4.00;99.90;;;;;;5033805;28;20099;-83
2021/11/27 07:54:38;;;;;;;0.10;0.10;;;3.70;99.90;;;;;;5032588;28;20120;-83
2021/11/27 07:57:06;;;;;;;0.10;0.10;;;3.90;99.90;;;;;;5033060;28;20046;-85
2021/11/27 07:59:34;;;;;;;0.10;0.10;;;3.70;99.90;;;;;;5048686;28;20042;-83
2021/11/27 08:02:01;;;;;;;0.10;0.10;;;3.80;99.90;;;;;;5032115;28;20099;-83
2021/11/27 08:04:28;;;;;;;0.10;0.10;;;3.80;99.90;;;;;;5012702;28;20041;-84
2021/11/27 08:06:55;;;;;;;0.10;0.10;;;3.80;99.90;;;;;;5012696;28;20042;-86
2021/11/27 08:09:22;;;;;;;0.10;0.10;;;3.80;99.90;;;;;;5000620;28;20054;-84
2021/11/27 08:11:48;;;;;;;0.10;0.10;;;3.90;99.90;;;;;;5026723;28;20068;-85
2021/11/27 08:14:15;;;;;;;0.20;0.20;;;3.90;99.90;;;;;;5035415;28;20033;-83
2021/11/27 08:16:42;;;;;;;0.10;0.10;;;3.90;99.90;;;;;;5052247;28;20041;-83
2021/11/27 08:19:09;;;;;;;0.20;0.20;;;4.00;99.90;;;;;;5035897;28;20041;-84
2021/11/27 08:21:35;;;;;;;0.10;0.10;;;4.20;99.90;;;;;;5052824;28;20124;-85
2021/11/27 08:24:02;;;;;;;0.10;0.10;;;4.00;99.90;;;;;;5053318;28;20045;-83
2021/11/27 08:26:35;;;;;;;0.10;0.10;;;4.00;99.90;;;;;;5049376;28;20044;-83
2021/11/27 08:29:02;;;;;;;0.10;0.10;;;4.40;99.90;;;;;;5047747;28;20128;-84
2021/11/27 08:31:28;;;;;;;0.10;0.10;;;4.80;99.90;;;;;;5038016;28;20120;-83
2021/11/27 08:33:56;;;;;;;0.20;0.20;;;4.00;99.90;;;;;;5029663;28;20445;-84
2021/11/27 08:36:23;;;;;;;0.10;0.10;;;4.10;99.90;;;;;;5048537;28;20053;-83
2021/11/27 08:38:50;;;;;;;0.15;0.15;;;4.10;99.90;;;;;;5015443;28;20038;-84
2021/11/27 08:41:17;;;;;;;0.10;0.10;;;4.10;99.90;;;;;;5015462;28;20037;-84
2021/11/27 08:43:43;;;;;;;0.10;0.10;;;4.10;99.90;;;;;;5014824;28;20089;-83
2021/11/27 08:46:10;;;;;;;0.10;0.10;;;4.20;99.90;;;;;;5031232;28;20492;-83
2021/11/27 08:48:37;;;;;;;0.10;0.10;;;4.20;99.90;;;;;;5031342;28;20042;-84
2021/11/27 08:51:08;;;;;;;0.20;0.20;;;4.20;99.90;;;;;;5031054;28;20042;-84
2021/11/27 08:53:35;;;;;;;0.10;0.10;;;4.20;99.90;;;;;;5047096;28;20045;-83
2021/11/27 08:56:03;;;;;;;0.10;0.10;;;4.30;99.90;;;;;;5031079;28;20042;-83
2021/11/27 08:58:30;;;;;;;0.20;0.20;;;4.20;99.90;;;;;;5030260;28;20073;-84
2021/11/27 09:00:57;;;;;;;0.20;0.20;;;4.20;99.90;;;;;;5014703;28;20088;-84
2021/11/27 09:03:24;;;;;;;0.10;0.10;;;4.90;99.90;;;;;;5047909;28;20380;-84
2021/11/27 09:05:51;;;;;;;0.10;0.10;;;4.30;99.90;;;;;;5025948;28;20046;-84
2021/11/27 09:08:19;;;;;;;0.10;0.10;;;4.40;99.90;;;;;;5049752;28;20052;-84
2021/11/27 09:10:48;;;;;;;0.10;0.10;;;4.30;99.90;;;;;;5030437;28;20145;-84
2021/11/27 09:13:16;;;;;;;0.10;0.10;;;4.30;99.90;;;;;;5046877;28;20137;-84
2021/11/27 09:15:42;;;;;;;0.15;0.15;;;4.30;99.90;;;;;;5030077;28;20042;-83
2021/11/27 09:18:10;;;;;;;0.10;0.10;;;4.60;99.90;;;;;;5030217;28;20179;-83
2021/11/27 09:20:37;;;;;;;0.10;0.10;;;4.40;99.90;;;;;;5030045;28;20049;-83
2021/11/27 09:23:04;;;;;;;0.10;0.10;;;4.30;99.90;;;;;;4998350;28;20125;-82
2021/11/27 09:25:31;;;;;;;0.10;0.10;;;5.10;99.90;;;;;;5014041;28;20135;-82
2021/11/27 09:27:59;;;;;;;0.10;0.10;;;4.40;99.90;;;;;;5046896;28;20048;-82
2021/11/27 09:30:30;;;;;;;0.10;0.10;;;4.70;99.90;;;;;;5030410;28;20049;-82
2021/11/27 09:32:57;;;;;;;0.20;0.20;;;4.30;99.90;;;;;;5046679;28;20042;-82
2021/11/27 09:35:24;;;;;;;0.10;0.10;;;4.30;99.90;;;;;;5014204;28;20030;-82
2021/11/27 09:37:52;;;;;;;0.20;0.20;;;4.30;99.90;;;;;;5046267;28;20046;-82
2021/11/27 09:40:18;;;;;;;0.10;0.10;;;4.40;99.90;;;;;;5014464;28;20042;-83
2021/11/27 09:42:50;;;;;;;0.10;0.10;;;4.30;99.90;;;;;;5013736;28;20053;-83
2021/11/27 09:45:25;;;;;;;0.10;0.10;;;4.40;99.90;;;;;;5046431;28;20720;-83
2021/11/27 09:47:55;;;;;;;0.10;0.10;;;4.40;99.90;;;;;;5030066;28;20045;-82
2021/11/27 09:50:23;;;;;;;0.10;0.10;;;4.50;99.90;;;;;;5030176;28;20042;-83
2021/11/27 09:52:51;;;;;;;0.10;0.10;;;4.40;99.90;;;;;;5046249;28;20045;-83
2021/11/27 09:55:20;;;;;;;0.10;0.10;;;4.60;99.90;;;;;;5046169;28;20042;-83
2021/11/27 09:57:49;;;;;;;0.52;0.32;;;4.40;99.90;;;;;;5046152;28;20391;-83
2021/11/27 10:00:19;;;;;;;0.10;0.10;;;4.60;99.90;;;;;;5014535;28;20030;-83
2021/11/27 10:02:53;;;;;;;0.10;0.10;;;4.50;99.90;;;;;;5030547;28;20096;-83
2021/11/27 10:05:20;;;;;;;0.10;0.10;;;4.50;99.90;;;;;;5047854;28;20042;-83
2021/11/27 10:07:48;;;;;;;0.10;0.10;;;4.60;99.90;;;;;;5047729;28;20748;-83
2021/11/27 10:10:15;;;;;;;0.10;0.10;;;4.60;99.90;;;;;;5031702;28;20058;-83
2021/11/27 10:12:42;;;;;;;0.10;0.10;;;4.50;99.90;;;;;;5031364;28;20068;-83
2021/11/27 10:15:11;;;;;;;0.10;0.10;;;4.50;99.90;;;;;;4999321;28;20129;-83
2021/11/27 10:17:39;;;;;;;0.10;0.10;;;4.50;99.90;;;;;;5049287;28;20038;-83
2021/11/27 10:20:07;;;;;;;0.10;0.10;;;4.60;99.90;;;;;;5055263;28;20125;-82
2021/11/27 10:22:50;;;;;;;0.10;0.10;;;4.60;99.90;;;;;;5055477;28;20033;-82
2021/11/27 10:25:23;;;;;;;0.17;0.17;;;4.60;99.90;;;;;;5058762;28;20045;-83
2021/11/27 10:27:52;;;;;;;0.10;0.10;;;4.60;99.90;;;;;;5041502;28;20130;-83
2021/11/27 10:30:20;;;;;;;0.10;0.10;;;4.60;99.90;;;;;;5068343;28;20037;-83
2021/11/27 10:32:48;;;;;;;0.10;0.10;;;4.60;99.90;;;;;;5050320;28;20041;-82
2021/11/27 10:35:19;;;;;;;0.10;0.10;;;4.60;99.90;;;;;;5074407;28;20068;-83
2021/11/27 10:37:49;;;;;;;0.10;0.10;;;4.80;99.90;;;;;;5068506;28;20042;-82
2021/11/27 10:40:21;;;;;;;0.20;0.20;;;4.60;99.90;;;;;;5039641;28;20099;-83
2021/11/27 10:42:54;;;;;;;0.10;0.10;;;4.60;99.90;;;;;;5066712;28;20045;-83
2021/11/27 10:45:29;;;;;;;0.10;0.10;;;4.60;99.90;;;;;;5059710;28;20037;-83
2021/11/27 10:48:14;;;;;;;0.17;0.17;;;4.60;99.90;;;;;;5073192;28;20128;-83
2021/11/27 10:50:43;;;;;;;0.20;0.20;;;4.60;99.90;;;;;;5050087;28;20041;-82
2021/11/27 10:53:12;;;;;;;0.17;0.17;;;4.70;99.90;;;;;;5072060;28;20111;-82
2021/11/27 10:55:40;;;;;;;0.10;0.10;;;4.60;99.90;;;;;;5055930;28;20041;-82
2021/11/27 10:58:08;;;;;;;0.10;0.10;;;4.60;99.90;;;;;;5057700;28;20034;-83
2021/11/27 11:00:45;;;;;;;0.10;0.10;;;4.60;99.90;;;;;;5059984;28;20033;-82
2021/11/27 11:03:32;;;;;;;0.10;0.10;;;4.60;99.90;;;;;;5073923;28;20450;-83
2021/11/27 11:06:00;;;;;;;0.10;0.10;;;4.70;99.90;;;;;;5054883;28;20033;-83
2021/11/27 11:08:37;;;;;;;0.10;0.10;;;4.70;99.90;;;;;;5073859;28;20044;-83
2021/11/27 11:11:25;;;;;;;0.20;0.20;;;4.70;99.90;;;;;;5074114;28;20140;-83
2021/11/27 11:14:00;;;;;;;0.10;0.10;;;4.70;99.90;;;;;;5056369;28;20044;-82
2021/11/27 11:16:32;;;;;;;0.10;0.10;;;4.70;99.90;;;;;;5072482;28;20037;-83
2021/11/27 11:19:18;;;;;;;0.10;0.10;;;5.30;99.90;;;;;;5054921;28;20521;-83
2021/11/27 11:22:21;;;;;;;0.20;0.20;;;4.90;99.90;;;;;;5056128;28;20120;-83
2021/11/27 11:24:48;;;;;;;0.10;0.10;;;4.80;99.90;;;;;;5022272;28;20063;-84
2021/11/27 11:27:32;;;;;;;0.10;0.10;;;4.70;99.90;;;;;;5037069;28;20051;-83
2021/11/27 11:30:02;;;;;;;0.10;0.10;;;4.70;99.90;;;;;;5054334;28;20041;-82
2021/11/27 11:32:29;;;;;;;0.10;0.10;;;4.70;99.90;;;;;;5039950;28;20103;-83
2021/11/27 11:35:01;;;;;;;0.10;0.10;;;4.80;99.90;;;;;;5051044;28;20554;-83
2021/11/27 11:37:29;;;;;;;0.43;0.30;;;4.70;99.90;;;;;;5051282;28;20038;-83
2021/11/27 11:39:57;;;;;;;0.10;0.10;;;4.70;99.90;;;;;;5034105;28;20041;-83
2021/11/27 11:42:27;;;;;;;0.10;0.10;;;5.10;99.90;;;;;;5034165;28;20037;-84
2021/11/27 11:44:54;;;;;;;0.10;0.10;;;5.00;99.90;;;;;;5038638;28;20052;-83
2021/11/27 11:47:23;;;;;;;0.10;0.10;;;4.70;99.90;;;;;;5070227;28;20095;-83
2021/11/27 11:50:00;;;;;;;0.10;0.10;;;4.70;99.90;;;;;;5065620;28;20052;-83
2021/11/27 11:52:55;;;;;;;0.10;0.10;;;4.70;99.90;;;;;;5053536;28;20124;-83
2021/11/27 11:55:23;;;;;;;0.10;0.10;;;4.60;99.90;;;;;;5056537;28;20046;-83
2021/11/27 11:57:54;;;;;;;0.10;0.10;;;4.70;99.90;;;;;;5060949;28;20103;-82
2021/11/27 12:00:34;;;;;;;0.10;0.10;;;4.70;99.90;;;;;;5035901;28;20105;-82
2021/11/27 12:03:10;;;;;;;0.10;0.10;;;4.60;99.90;;;;;;5042018;28;20509;-82
2021/11/27 12:05:55;;;;;;;0.10;0.10;;;4.60;99.90;;;;;;5035459;28;20394;-81
2021/11/27 12:08:53;;;;;;;0.10;0.10;;;4.60;99.90;;;;;;5032925;28;20571;-81
2021/11/27 12:11:39;;;;;;;0.10;0.10;;;4.60;99.90;;;;;;5048489;28;20057;-82
2021/11/27 12:14:21;;;;;;;;;;;4.60;99.90;;;;;;5052863;28;20088;-82
2021/11/27 12:17:04;;;;;;;0.10;0.10;;;4.60;99.90;;;;;;5052507;28;20424;-82
2021/11/27 12:19:36;;;;;;;0.10;0.10;;;4.50;99.90;;;;;;5070937;28;20124;-82
2021/11/27 12:22:34;;;;;;;0.10;0.10;;;4.50;99.90;;;;;;5040477;28;20037;-82
2021/11/27 12:25:10;;;;;;;0.05;0.05;;;4.50;99.90;;;;;;5044135;28;20402;-82
2021/11/27 12:28:01;;;;;;;0.10;0.10;;;4.50;99.90;;;;;;5049968;28;20041;-82
2021/11/27 12:30:41;;;;;;;0.10;0.10;;;4.50;99.90;;;;;;5039629;28;20041;-82
2021/11/27 12:33:27;;;;;;;0.10;0.10;;;4.40;99.90;;;;;;5069348;28;20586;-82
2021/11/27 12:35:54;;;;;;;0.10;0.10;;;4.40;99.90;;;;;;5055997;28;20406;-82
2021/11/27 12:38:31;;;;;;;0.10;0.10;;;4.40;99.90;;;;;;5037632;28;20038;-83
2021/11/27 12:40:58;;;;;;;0.10;0.10;;;4.30;99.90;;;;;;5069892;28;20088;-82
2021/11/27 12:43:26;;;;;;;0.10;0.10;;;4.40;99.90;;;;;;5069090;28;20116;-82
2021/11/27 12:45:57;;;;;;;0.10;0.10;;;4.30;99.90;;;;;;5019137;28;20045;-82
2021/11/27 12:48:34;;;;;;;0.10;0.10;;;4.30;99.90;;;;;;5070017;28;20045;-82
2021/11/27 12:51:18;;;;;;;0.10;0.10;;;4.40;99.90;;;;;;5053619;28;20048;-82
2021/11/27 12:54:01;;;;;;;0.10;0.10;;;4.40;99.90;;;;;;5047419;28;20045;-82
2021/11/27 12:56:53;;;;;;;0.10;0.10;;;4.40;99.90;;;;;;5049852;28;20141;-82
2021/11/27 12:59:22;;;;;;;0.10;0.10;;;4.40;99.90;;;;;;5033210;28;20042;-82
2021/11/27 13:01:52;;;;;;;0.10;0.10;;;4.30;99.90;;;;;;5037368;28;20033;-82
2021/11/27 13:04:20;;;;;;;0.10;0.10;;;4.40;99.90;;;;;;5069848;28;20041;-82
2021/11/27 13:06:49;;;;;;;0.20;0.20;;;4.70;99.90;;;;;;5025132;28;20038;-83
2021/11/27 13:09:19;;;;;;;0.10;0.10;;;4.70;99.90;;;;;;5032504;28;20065;-83
2021/11/27 13:11:49;;;;;;;0.10;0.10;;;4.40;99.90;;;;;;5043319;28;20053;-82